Time;durP1;ratioP1;P1;durP2;ratioP2;P2;SDS_P1;SDS_P2;PMS_P1;PMS_P2;Temp;Humidity;BMP_temperature;BMP_pressure;BME280_temperature;BME280_humidity;BME280_pressure;Samples;Min_cycle;Max_cycle;Signal;HPM_P1;HPM_P2
2022/09/01 00:01:05;;;;;;;;;;;;;;;11.88;100.00;100844.78;3058169;19;955;-49
2022/09/01 00:02:08;;;;;;;;;;;;;;;11.84;100.00;100847.72;3058754;19;901;-49
2022/09/01 00:03:13;;;;;;;;;;;;;;;11.80;100.00;100840.88;3058680;19;869;-48
2022/09/01 00:04:15;;;;;;;;;;;;;;;11.75;100.00;100842.91;3057989;19;1840;-50
2022/09/01 00:05:20;;;;;;;;;;;;;;;11.72;100.00;100843.97;3058499;19;1139;-49
2022/09/01 00:06:22;;;;;;;;;;;;;;;11.69;100.00;100838.81;3058760;19;1280;-50
2022/09/01 00:07:28;;;;;;;;;;;;;;;11.68;100.00;100836.22;3057125;19;1663;-47
2022/09/01 00:08:31;;;;;;;;;;;;;;;11.65;100.00;100831.94;3057750;19;1028;-47
2022/09/01 00:09:35;;;;;;;;;;;;;;;11.64;100.00;100818.66;3058297;19;874;-46
2022/09/01 00:10:38;;;;;;;;;;;;;;;11.60;100.00;100820.63;3058949;19;956;-49
2022/09/01 00:11:44;;;;;;;;;;;;;;;11.59;100.00;100821.63;3057937;19;1027;-47
2022/09/01 00:12:51;;;;;;;;;;;;;;;11.57;100.00;100822.66;3058776;19;913;-48
2022/09/01 00:13:57;;;;;;;;;;;;;;;11.55;100.00;100814.72;3058469;19;1123;-49
2022/09/01 00:14:59;;;;;;;;;;;;;;;11.55;100.00;100817.41;3057557;19;802;-46
2022/09/01 00:16:04;;;;;;;;;;;;;;;11.51;100.00;100813.19;3057138;19;2049;-48
2022/09/01 00:17:08;;;;;;;;;;;;;;;11.50;100.00;100812.31;3058820;19;976;-47
2022/09/01 00:18:12;;;;;;;;;;;;;;;11.50;100.00;100808.78;3057476;19;964;-48
2022/09/01 00:19:14;;;;;;;;;;;;;;;11.48;100.00;100810.69;3057719;19;957;-50
2022/09/01 00:20:18;;;;;;;;;;;;;;;11.48;100.00;100808.00;3058060;19;974;-47
2022/09/01 00:21:23;;;;;;;;;;;;;;;11.43;100.00;100797.63;3058710;19;834;-46
2022/09/01 00:22:28;;;;;;;;;;;;;;;11.45;100.00;100794.84;3056978;19;1715;-47
2022/09/01 00:23:30;;;;;;;;;;;;;;;11.43;100.00;100805.63;3057439;19;937;-48
2022/09/01 00:24:34;;;;;;;;;;;;;;;11.36;100.00;100792.72;3057384;19;1857;-49
2022/09/01 00:25:36;;;;;;;;;;;;;;;11.42;100.00;100803.06;3057478;19;961;-48
2022/09/01 00:26:41;;;;;;;;;;;;;;;11.42;100.00;100803.06;3057449;19;1664;-49
2022/09/01 00:27:42;;;;;;;;;;;;;;;11.40;100.00;100795.13;3058322;19;948;-49
2022/09/01 00:28:47;;;;;;;;;;;;;;;11.41;100.00;100798.66;3058402;19;1060;-47
2022/09/01 00:29:49;;;;;;;;;;;;;;;11.41;100.00;100801.34;3058118;19;1036;-48
2022/09/01 00:30:53;;;;;;;;;;;;;;;11.39;100.00;100797.88;3058453;19;901;-48
2022/09/01 00:31:55;;;;;;;;;;;;;;;11.39;100.00;100789.88;3058270;19;1035;-49
2022/09/01 00:33:00;;;;;;;;;;;;;;;11.38;100.00;100790.81;3058117;19;1667;-46
2022/09/01 00:34:02;;;;;;;;;;;;;;;11.37;100.00;100789.09;3058181;19;905;-48
2022/09/01 00:35:07;;;;;;;;;;;;;;;11.34;100.00;100789.31;3057285;19;873;-47
2022/09/01 00:36:09;;;;;;;;;;;;;;;11.34;100.00;100789.31;3057396;19;987;-50
2022/09/01 00:37:14;;;;;;;;;;;;;;;11.34;100.00;100795.50;3058402;19;905;-47
2022/09/01 00:38:15;;;;;;;;;;;;;;;11.32;100.00;100785.84;3058193;19;1145;-47
2022/09/01 00:39:20;;;;;;;;;;;;;;;11.32;100.00;100783.19;3058417;19;925;-48
2022/09/01 00:40:22;;;;;;;;;;;;;;;11.31;100.00;100781.47;3057169;19;1020;-48
2022/09/01 00:41:27;;;;;;;;;;;;;;;11.30;100.00;100787.75;3057576;19;864;-47
2022/09/01 00:42:29;;;;;;;;;;;;;;;11.28;100.00;100778.97;3057977;19;1871;-49
2022/09/01 00:43:43;;;;;;;;;;;;;;;11.26;100.00;100780.88;3058145;19;945;-47
2022/09/01 00:44:45;;;;;;;;;;;;;;;11.22;100.00;100784.69;3057610;19;1856;-48
2022/09/01 00:45:50;;;;;;;;;;;;;;;11.19;100.00;100777.72;3058193;19;1595;-47
2022/09/01 00:46:54;;;;;;;;;;;;;;;11.14;100.00;100777.97;3058183;19;964;-50
2022/09/01 00:47:59;;;;;;;;;;;;;;;11.12;100.00;100777.19;3058137;19;925;-47
2022/09/01 00:49:05;;;;;;;;;;;;;;;11.07;100.00;100779.31;3057130;19;909;-48
2022/09/01 00:50:11;;;;;;;;;;;;;;;11.05;100.00;100775.00;3055954;19;1888;-49
2022/09/01 00:51:12;;;;;;;;;;;;;;;11.02;100.00;100768.00;3057204;19;913;-48
2022/09/01 00:52:19;;;;;;;;;;;;;;;11.00;100.00;100772.59;3057355;19;909;-47
2022/09/01 00:53:21;;;;;;;;;;;;;;;10.99;100.00;100768.19;3057043;19;941;-48
2022/09/01 00:54:26;;;;;;;;;;;;;;;10.98;100.00;100768.31;3057407;19;953;-49
2022/09/01 00:55:29;;;;;;;;;;;;;;;10.95;100.00;100766.66;3057103;19;967;-47
2022/09/01 00:56:36;;;;;;;;;;;;;;;10.94;100.00;100764.94;3057261;19;1238;-49
2022/09/01 00:57:38;;;;;;;;;;;;;;;10.92;100.00;100761.50;3057120;19;942;-47
2022/09/01 00:58:43;;;;;;;;;;;;;;;10.91;100.00;100759.78;3056438;19;1764;-48
2022/09/01 00:59:47;;;;;;;;;;;;;;;10.90;100.00;100760.72;3056837;19;941;-46
2022/09/01 01:00:52;;;;;;;;;;;;;;;10.89;100.00;100766.16;3057471;19;925;-47
2022/09/01 01:01:55;;;;;;;;;;;;;;;10.87;100.00;100758.22;3057039;19;953;-47
2022/09/01 01:02:59;;;;;;;;;;;;;;;10.86;100.00;100755.69;3057308;19;906;-48
2022/09/01 01:04:05;;;;;;;;;;;;;;;10.87;100.00;100752.06;3056446;19;1226;-46
2022/09/01 01:05:09;;;;;;;;;;;;;;;10.85;100.00;100752.16;3055191;19;1861;-50
2022/09/01 01:06:15;;;;;;;;;;;;;;;10.85;100.00;100753.94;3057349;19;944;-49
2022/09/01 01:07:21;;;;;;;;;;;;;;;10.83;100.00;100754.03;3056763;19;870;-48
2022/09/01 01:08:30;;;;;;;;;;;;;;;10.81;100.00;100750.59;3057094;19;965;-48
2022/09/01 01:09:36;;;;;;;;;;;;;;;10.80;100.00;100751.53;3056632;19;1028;-48
2022/09/01 01:10:39;;;;;;;;;;;;;;;10.79;100.00;100752.47;3057284;19;822;-47
2022/09/01 01:11:46;;;;;;;;;;;;;;;10.78;100.00;100756.09;3056438;19;887;-46
2022/09/01 01:12:50;;;;;;;;;;;;;;;10.75;100.00;100751.78;3056569;19;969;-47
2022/09/01 01:13:59;;;;;;;;;;;;;;;10.72;100.00;100753.81;3056351;19;1667;-48
2022/09/01 01:15:01;;;;;;;;;;;;;;;10.69;100.00;100756.63;3056940;19;1032;-48
2022/09/01 01:16:12;;;;;;;;;;;;;;;10.64;100.00;100756.88;3056759;19;920;-50
2022/09/01 01:17:20;;;;;;;;;;;;;;;10.62;100.00;100757.97;3056828;19;883;-48
2022/09/01 01:18:24;;;;;;;;;;;;;;;10.59;100.00;100755.47;3056761;19;1015;-49
2022/09/01 01:23:27;;;;;;;;;;;;;;;10.43;100.00;100763.47;3056770;19;949;-49
2022/09/01 01:24:30;;;;;;;;;;;;;;;10.40;100.00;100752.97;3056565;19;930;-49
2022/09/01 01:25:41;;;;;;;;;;;;;;;10.37;100.00;100756.69;3056345;19;1849;-49
2022/09/01 01:26:43;;;;;;;;;;;;;;;10.34;100.00;100762.19;3056457;19;781;-49
2022/09/01 01:27:48;;;;;;;;;;;;;;;10.32;100.00;100753.41;3056680;19;882;-48
2022/09/01 01:28:53;;;;;;;;;;;;;;;10.28;100.00;100754.50;3056793;19;1729;-49
2022/09/01 01:29:59;;;;;;;;;;;;;;;10.27;100.00;100752.78;3056752;19;889;-49
2022/09/01 01:31:10;;;;;;;;;;;;;;;10.24;100.00;100752.97;3056541;19;956;-50
2022/09/01 01:32:15;;;;;;;;;;;;;;;10.21;100.00;100753.16;3056639;19;944;-46
2022/09/01 01:33:25;;;;;;;;;;;;;;;10.20;100.00;100748.75;3056668;19;1151;-46
2022/09/01 01:34:29;;;;;;;;;;;;;;;10.17;100.00;100740.88;3056187;19;969;-47
2022/09/01 01:35:32;;;;;;;;;;;;;;;10.15;100.00;100742.78;3056602;19;1204;-47
2022/09/01 01:36:38;;;;;;;;;;;;;;;10.13;100.00;100742.03;3056219;19;1698;-49
2022/09/01 01:37:47;;;;;;;;;;;;;;;10.09;100.00;100729.78;3056761;19;905;-47
2022/09/01 01:38:56;;;;;;;;;;;;;;;10.08;100.00;100736.06;3056251;19;1059;-48
2022/09/01 01:39:58;;;;;;;;;;;;;;;10.07;100.00;100737.00;3056592;19;860;-49
2022/09/01 01:41:05;;;;;;;;;;;;;;;10.06;100.00;100733.47;3055937;19;1817;-47
2022/09/01 01:42:08;;;;;;;;;;;;;;;10.03;100.00;100738.13;3056285;19;928;-47
2022/09/01 01:43:18;;;;;;;;;;;;;;;10.00;100.00;100730.31;3056029;19;976;-48
2022/09/01 01:44:23;;;;;;;;;;;;;;;9.97;100.00;100735.81;3056885;19;952;-48
2022/09/01 01:45:27;;;;;;;;;;;;;;;9.95;100.00;100733.22;3056098;19;1855;-50
2022/09/01 01:46:30;;;;;;;;;;;;;;;9.95;100.00;100745.69;3056637;19;937;-49
2022/09/01 01:47:35;;;;;;;;;;;;;;;9.94;100.00;100741.28;3056059;19;1031;-48
2022/09/01 01:48:39;;;;;;;;;;;;;;;9.92;100.00;100738.72;3056541;19;1052;-49
2022/09/01 01:49:44;;;;;;;;;;;;;;;9.91;100.00;100741.47;3056388;19;1079;-48
2022/09/01 01:50:47;;;;;;;;;;;;;;;9.89;100.00;100740.72;3056303;19;1036;-48
2022/09/01 01:51:54;;;;;;;;;;;;;;;9.86;100.00;100741.72;3056211;19;1000;-50
2022/09/01 01:53:01;;;;;;;;;;;;;;;9.85;100.00;100736.47;3056210;19;1547;-49
2022/09/01 01:54:14;;;;;;;;;;;;;;;9.82;100.00;100731.31;3056327;19;1040;-48
2022/09/01 01:55:18;;;;;;;;;;;;;;;9.80;100.00;100738.50;3056303;19;956;-49
2022/09/01 01:56:24;;;;;;;;;;;;;;;9.77;100.00;100731.56;3056260;19;786;-48
2022/09/01 01:57:30;;;;;;;;;;;;;;;9.74;100.00;100732.59;3056152;19;1174;-49
2022/09/01 01:58:35;;;;;;;;;;;;;;;9.72;100.00;100733.63;3056598;19;858;-49
2022/09/01 01:59:43;;;;;;;;;;;;;;;9.70;100.00;100728.38;3056266;19;877;-50
2022/09/01 02:00:49;;;;;;;;;;;;;;;9.69;100.00;100729.31;3056040;19;944;-48
2022/09/01 02:01:51;;;;;;;;;;;;;;;9.69;100.00;100731.97;3055890;19;1032;-47
2022/09/01 02:02:56;;;;;;;;;;;;;;;9.69;100.00;100731.09;3056535;19;949;-47
2022/09/01 02:03:59;;;;;;;;;;;;;;;9.66;100.00;100732.13;3056315;19;902;-48
2022/09/01 02:05:05;;;;;;;;;;;;;;;9.63;100.00;100729.66;3056470;19;1148;-48
2022/09/01 02:06:08;;;;;;;;;;;;;;;9.60;100.00;100727.16;3055193;19;1850;-49
2022/09/01 02:07:14;;;;;;;;;;;;;;;9.57;100.00;100723.78;3056181;19;1177;-49
2022/09/01 02:08:21;;;;;;;;;;;;;;;9.54;100.00;100729.28;3056010;19;893;-49
2022/09/01 02:09:26;;;;;;;;;;;;;;;9.52;100.00;100721.38;3056104;19;1064;-50
2022/09/01 02:10:30;;;;;;;;;;;;;;;9.50;100.00;100725.06;3055832;19;985;-47
2022/09/01 02:11:36;;;;;;;;;;;;;;;9.46;100.00;100716.34;3056374;19;1367;-50
2022/09/01 02:12:42;;;;;;;;;;;;;;;9.42;100.00;100717.44;3055937;19;1269;-48
2022/09/01 02:13:48;;;;;;;;;;;;;;;9.41;100.00;100723.75;3055872;19;1674;-48
2022/09/01 02:14:53;;;;;;;;;;;;;;;9.38;100.00;100724.78;3056955;19;980;-47
2022/09/01 02:16:00;;;;;;;;;;;;;;;9.35;100.00;100713.41;3057750;19;1187;-49
2022/09/01 02:17:05;;;;;;;;;;;;;;;9.32;100.00;100718.88;3059268;19;878;-49
2022/09/01 02:18:23;;;;;;;;;;;;;;;9.28;100.00;100717.34;3059052;19;920;-47
2022/09/01 02:19:25;;;;;;;;;;;;;;;9.27;100.00;100715.63;3059611;19;1366;-48
2022/09/01 02:20:31;;;;;;;;;;;;;;;9.24;100.00;100721.09;3059021;19;1648;-50
2022/09/01 02:21:33;;;;;;;;;;;;;;;9.22;100.00;100709.66;3059313;19;981;-47
2022/09/01 02:22:39;;;;;;;;;;;;;;;9.20;100.00;100711.53;3058616;19;1706;-48
2022/09/01 02:23:41;;;;;;;;;;;;;;;9.18;100.00;100700.09;3059447;19;910;-48
2022/09/01 02:24:47;;;;;;;;;;;;;;;9.17;100.00;100711.72;3059335;19;925;-49
2022/09/01 02:25:52;;;;;;;;;;;;;;;9.16;100.00;100712.66;3058797;19;1919;-48
2022/09/01 02:27:24;;;;;;;;;;;;;;;9.13;100.00;100713.69;3058992;19;1020;-49
2022/09/01 02:28:30;;;;;;;;;;;;;;;9.12;100.00;100708.44;3059107;19;976;-48
2022/09/01 02:29:35;;;;;;;;;;;;;;;9.09;100.00;100716.56;3059363;19;870;-48
2022/09/01 02:30:50;;;;;;;;;;;;;;;9.07;100.00;100706.00;3059022;19;937;-50
2022/09/01 02:31:57;;;;;;;;;;;;;;;9.05;100.00;100709.69;3059873;19;1297;-47
2022/09/01 02:32:59;;;;;;;;;;;;;;;9.03;100.00;100712.44;3058718;19;1016;-47
2022/09/01 02:34:03;;;;;;;;;;;;;;;9.01;100.00;100709.00;3058880;19;1784;-49
2022/09/01 02:35:08;;;;;;;;;;;;;;;8.98;100.00;100710.00;3059016;19;944;-47
2022/09/01 02:36:16;;;;;;;;;;;;;;;8.95;100.00;100710.16;3059168;19;1608;-48
2022/09/01 02:37:24;;;;;;;;;;;;;;;8.93;100.00;100700.56;3058963;19;945;-48
2022/09/01 02:38:30;;;;;;;;;;;;;;;8.90;100.00;100704.22;3058921;19;941;-49
2022/09/01 02:39:32;;;;;;;;;;;;;;;8.88;100.00;100708.75;3058580;19;896;-49
2022/09/01 02:40:39;;;;;;;;;;;;;;;8.79;100.00;100695.94;3059029;19;1036;-46
2022/09/01 02:41:41;;;;;;;;;;;;;;;8.85;100.00;100711.56;3058885;19;814;-49
2022/09/01 02:42:47;;;;;;;;;;;;;;;8.83;100.00;100717.91;3058974;19;1560;-48
2022/09/01 02:43:49;;;;;;;;;;;;;;;8.79;100.00;100713.69;3058711;19;987;-48
2022/09/01 02:44:54;;;;;;;;;;;;;;;8.77;100.00;100708.44;3059884;19;1055;-49
2022/09/01 02:45:58;;;;;;;;;;;;;;;8.75;100.00;100722.75;3058689;19;1850;-47
2022/09/01 02:47:08;;;;;;;;;;;;;;;8.74;100.00;100721.03;3058955;19;1976;-49
2022/09/01 02:48:09;;;;;;;;;;;;;;;8.72;100.00;100721.09;3059207;19;929;-49
2022/09/01 02:49:18;;;;;;;;;;;;;;;8.70;100.00;100720.31;3058997;19;1354;-49
2022/09/01 02:50:21;;;;;;;;;;;;;;;8.70;100.00;100720.31;3057975;19;1122;-47
2022/09/01 02:51:26;;;;;;;;;;;;;;;8.69;100.00;100723.94;3058465;19;1096;-49
2022/09/01 02:52:35;;;;;;;;;;;;;;;8.67;100.00;100715.16;3059972;19;915;-47
2022/09/01 02:53:41;;;;;;;;;;;;;;;8.66;100.00;100718.75;3058559;19;1691;-48
2022/09/01 02:54:44;;;;;;;;;;;;;;;8.66;100.00;100721.44;3058605;19;870;-48
2022/09/01 02:55:50;;;;;;;;;;;;;;;8.66;100.00;100726.75;3058567;19;918;-46
2022/09/01 02:56:58;;;;;;;;;;;;;;;8.69;100.00;100717.75;3043967;19;1886;-47
2022/09/01 02:58:03;;;;;;;;;;;;;;;8.68;100.00;100714.22;3055155;19;2712;-46
2022/09/01 02:59:11;;;;;;;;;;;;;;;8.70;100.00;100715.00;3057566;19;1183;-49
2022/09/01 03:00:27;;;;;;;;;;;;;;;8.74;100.00;100713.91;3058400;19;926;-49
2022/09/01 03:01:30;;;;;;;;;;;;;;;8.75;100.00;100712.97;3059716;19;896;-49
2022/09/01 03:02:37;;;;;;;;;;;;;;;8.76;100.00;100708.50;3059437;19;1127;-49
2022/09/01 03:03:39;;;;;;;;;;;;;;;8.78;100.00;100707.50;3058740;19;869;-48
2022/09/01 03:04:43;;;;;;;;;;;;;;;8.78;100.00;100702.19;3058347;19;1015;-46
2022/09/01 03:05:45;;;;;;;;;;;;;;;8.79;100.00;100701.25;3058637;19;1054;-47
2022/09/01 03:06:53;;;;;;;;;;;;;;;8.80;100.00;100705.63;3056891;19;1848;-49
2022/09/01 03:08:00;;;;;;;;;;;;;;;8.82;100.00;100703.72;3058448;19;1000;-49
2022/09/01 03:09:06;;;;;;;;;;;;;;;8.82;100.00;100698.41;3058181;19;857;-46
2022/09/01 03:10:08;;;;;;;;;;;;;;;8.83;100.00;100702.78;3058703;19;956;-50
2022/09/01 03:11:13;;;;;;;;;;;;;;;8.85;100.00;100703.59;3058229;19;1046;-46
2022/09/01 03:12:15;;;;;;;;;;;;;;;8.85;100.00;100694.72;3058443;19;1050;-47
2022/09/01 03:13:21;;;;;;;;;;;;;;;8.86;100.00;100694.66;3058218;19;924;-48
2022/09/01 03:14:23;;;;;;;;;;;;;;;8.88;100.00;100694.59;3058481;19;936;-48
2022/09/01 03:15:27;;;;;;;;;;;;;;;8.87;100.00;100696.38;3057793;19;1654;-49
2022/09/01 03:16:29;;;;;;;;;;;;;;;8.88;100.00;100690.13;3058409;19;1229;-47
2022/09/01 03:17:34;;;;;;;;;;;;;;;8.91;100.00;100697.97;3057937;19;1667;-48
2022/09/01 03:18:36;;;;;;;;;;;;;;;8.93;100.00;100689.91;3058317;19;772;-49
2022/09/01 03:19:44;;;;;;;;;;;;;;;8.93;100.00;100688.09;3057982;19;1333;-46
2022/09/01 03:20:46;;;;;;;;;;;;;;;8.93;100.00;100684.59;3058255;19;1026;-47
2022/09/01 03:21:50;;;;;;;;;;;;;;;8.94;100.00;100687.13;3057796;19;1780;-48
2022/09/01 03:22:57;;;;;;;;;;;;;;;8.95;100.00;100693.31;3058445;19;877;-47
2022/09/01 03:24:02;;;;;;;;;;;;;;;8.95;100.00;100688.84;3058210;19;970;-47
2022/09/01 03:25:04;;;;;;;;;;;;;;;8.95;100.00;100688.84;3058284;19;917;-47
2022/09/01 03:26:09;;;;;;;;;;;;;;;8.95;100.00;100688.00;3057944;19;999;-47
2022/09/01 03:27:11;;;;;;;;;;;;;;;8.94;100.00;100694.25;3056662;19;1863;-48
2022/09/01 03:28:16;;;;;;;;;;;;;;;8.94;100.00;100686.28;3057395;19;884;-47
2022/09/01 03:29:18;;;;;;;;;;;;;;;8.93;100.00;100690.75;3058043;19;1038;-47
2022/09/01 03:30:22;;;;;;;;;;;;;;;8.92;100.00;100690.84;3058395;19;1037;-47
2022/09/01 03:31:26;;;;;;;;;;;;;;;8.91;100.00;100689.97;3057965;19;960;-50
2022/09/01 03:32:36;;;;;;;;;;;;;;;8.91;100.00;100692.63;3058277;19;885;-50
2022/09/01 03:33:37;;;;;;;;;;;;;;;8.90;100.00;100695.38;3058037;19;1296;-49
2022/09/01 03:34:47;;;;;;;;;;;;;;;8.88;100.00;100698.09;3058180;19;869;-49
2022/09/01 03:35:48;;;;;;;;;;;;;;;8.88;100.00;100702.56;3058101;19;956;-48
2022/09/01 03:36:55;;;;;;;;;;;;;;;8.85;100.00;100695.59;3058128;19;1059;-48
2022/09/01 03:38:01;;;;;;;;;;;;;;;8.85;100.00;100705.38;3057714;19;992;-47
2022/09/01 03:39:06;;;;;;;;;;;;;;;8.83;100.00;100701.94;3058241;19;971;-47
2022/09/01 03:40:08;;;;;;;;;;;;;;;8.82;100.00;100693.09;3058023;19;1010;-49
2022/09/01 03:41:12;;;;;;;;;;;;;;;8.81;100.00;100702.03;3057873;19;1032;-50
2022/09/01 03:42:18;;;;;;;;;;;;;;;8.80;100.00;100700.31;3057811;19;1275;-47
2022/09/01 03:43:26;;;;;;;;;;;;;;;8.80;100.00;100699.44;3058139;19;1070;-48
2022/09/01 03:44:39;;;;;;;;;;;;;;;8.78;100.00;100696.88;3057986;19;870;-49
2022/09/01 03:45:42;;;;;;;;;;;;;;;8.75;100.00;100699.66;3058131;19;995;-46
2022/09/01 03:46:47;;;;;;;;;;;;;;;8.77;100.00;100696.94;3057643;19;1840;-50
2022/09/01 03:47:49;;;;;;;;;;;;;;;8.75;100.00;100697.00;3057942;19;1015;-49
2022/09/01 03:48:54;;;;;;;;;;;;;;;8.77;100.00;100702.25;3057816;19;909;-50
2022/09/01 03:49:58;;;;;;;;;;;;;;;8.75;100.00;100702.34;3058238;19;907;-46
2022/09/01 03:51:05;;;;;;;;;;;;;;;8.74;100.00;100689.97;3057851;19;1001;-48
2022/09/01 03:52:07;;;;;;;;;;;;;;;8.75;100.00;100690.81;3058000;19;1030;-47
2022/09/01 03:53:13;;;;;;;;;;;;;;;8.74;100.00;100695.28;3057734;19;1000;-48
2022/09/01 03:54:14;;;;;;;;;;;;;;;8.75;100.00;100697.00;3057986;19;967;-47
2022/09/01 03:55:22;;;;;;;;;;;;;;;8.75;100.00;100691.69;3057913;19;979;-48
2022/09/01 03:56:30;;;;;;;;;;;;;;;8.75;100.00;100683.72;3057829;19;1189;-48
2022/09/01 03:57:32;;;;;;;;;;;;;;;8.75;100.00;100697.00;3057332;19;1187;-47
2022/09/01 03:58:37;;;;;;;;;;;;;;;8.74;100.00;100692.63;3057801;19;765;-48
2022/09/01 03:59:42;;;;;;;;;;;;;;;8.75;100.00;100694.34;3057632;19;757;-48
2022/09/01 04:00:47;;;;;;;;;;;;;;;8.76;100.00;100692.56;3057386;19;1031;-49
2022/09/01 04:01:50;;;;;;;;;;;;;;;8.77;100.00;100700.47;3057709;19;1062;-47
2022/09/01 04:02:56;;;;;;;;;;;;;;;8.79;100.00;100697.72;3057296;19;1047;-49
2022/09/01 04:04:00;;;;;;;;;;;;;;;8.80;100.00;100695.00;3057769;19;995;-49
2022/09/01 04:05:08;;;;;;;;;;;;;;;8.82;100.00;100687.75;3057721;19;924;-47
2022/09/01 04:06:11;;;;;;;;;;;;;;;8.83;100.00;100689.50;3057625;19;1182;-47
2022/09/01 04:07:16;;;;;;;;;;;;;;;8.87;100.00;100691.06;3057221;19;1863;-48
2022/09/01 04:08:20;;;;;;;;;;;;;;;8.89;100.00;100689.19;3057967;19;994;-47
2022/09/01 04:09:24;;;;;;;;;;;;;;;8.92;100.00;100691.69;3057315;19;1650;-47
2022/09/01 04:10:26;;;;;;;;;;;;;;;8.96;100.00;100689.72;3058449;19;996;-47
2022/09/01 04:11:32;;;;;;;;;;;;;;;8.99;100.00;100690.44;3058242;19;1639;-50
2022/09/01 04:12:35;;;;;;;;;;;;;;;9.19;100.00;100686.72;3057763;19;928;-48
2022/09/01 04:13:41;;;;;;;;;;;;;;;9.92;100.00;100681.88;3056959;19;912;-50
2022/09/01 04:14:43;;;;;;;;;;;;;;;10.93;100.00;100693.81;3057788;19;1006;-50
2022/09/01 04:15:47;;;;;;;;;;;;;;;11.69;100.00;100689.09;3057399;19;991;-47
2022/09/01 04:18:09;;;;;;;;;;;;;;;13.03;100.00;100723.13;3057470;19;963;-49
2022/09/01 04:19:18;;;;;;;;;;;;;;;13.52;100.00;100741.22;3057865;19;984;-48
2022/09/01 04:20:24;;;;;;;;;;;;;;;13.95;100.00;100766.72;3057614;19;876;-47
2022/09/01 04:21:26;;;;;;;;;;;;;;;14.32;100.00;100788.25;3057601;19;920;-49
2022/09/01 04:22:30;;;;;;;;;;;;;;;14.61;100.00;100807.66;3057625;19;928;-49
2022/09/01 04:23:33;;;;;;;;;;;;;;;14.90;100.00;100829.66;3057166;19;1797;-47
2022/09/01 04:24:44;;;;;;;;;;;;;;;15.13;100.00;100850.31;3057397;19;1341;-48
2022/09/01 04:25:49;;;;;;;;;;;;;;;15.29;100.00;100864.34;3057083;19;1079;-49
2022/09/01 04:26:55;;;;;;;;;;;;;;;15.43;100.00;100877.59;3056188;19;920;-47
2022/09/01 04:27:57;;;;;;;;;;;;;;;15.55;100.00;100891.13;3056460;19;1849;-49
2022/09/01 04:29:01;;;;;;;;;;;;;;;15.61;100.00;100896.03;3057286;19;964;-49
2022/09/01 04:30:04;;;;;;;;;;;;;;;15.63;100.00;100905.72;3056686;19;2004;-50
2022/09/01 04:31:13;;;;;;;;;;;;;;;15.61;100.00;100907.66;3057224;19;1015;-49
2022/09/01 04:32:15;;;;;;;;;;;;;;;15.47;100.00;100914.03;3057201;19;937;-50
2022/09/01 04:33:24;;;;;;;;;;;;;;;15.24;100.00;100912.22;3057480;19;881;-49
2022/09/01 04:34:26;;;;;;;;;;;;;;;14.92;100.00;100913.72;3056991;19;936;-50
2022/09/01 04:35:31;;;;;;;;;;;;;;;14.49;100.00;100906.06;3057174;19;1094;-49
2022/09/01 04:36:40;;;;;;;;;;;;;;;14.05;100.00;100909.16;3058021;19;1058;-50
2022/09/01 04:37:46;;;;;;;;;;;;;;;13.77;100.00;100888.72;3057220;19;968;-49
2022/09/01 04:38:53;;;;;;;;;;;;;;;13.59;100.00;100892.69;3056607;19;865;-49
2022/09/01 04:39:58;;;;;;;;;;;;;;;13.45;100.00;100873.97;3055766;19;2238;-50
2022/09/01 04:41:05;;;;;;;;;;;;;;;13.34;100.00;100878.25;3056941;19;1155;-47
2022/09/01 04:42:09;;;;;;;;;;;;;;;13.23;100.00;100872.72;3056880;19;1015;-48
2022/09/01 04:43:11;;;;;;;;;;;;;;;13.11;100.00;100876.19;3056922;19;1011;-49
2022/09/01 04:44:17;;;;;;;;;;;;;;;13.01;100.00;100869.72;3056982;19;1812;-49
2022/09/01 04:45:24;;;;;;;;;;;;;;;12.89;100.00;100870.53;3057684;19;1007;-50
2022/09/01 04:46:31;;;;;;;;;;;;;;;12.77;100.00;100871.31;3057132;19;932;-50
2022/09/01 04:47:34;;;;;;;;;;;;;;;12.65;100.00;100878.31;3057105;19;1842;-46
2022/09/01 04:48:44;;;;;;;;;;;;;;;12.51;100.00;100876.53;3057129;19;888;-49
2022/09/01 04:49:48;;;;;;;;;;;;;;;12.41;100.00;100864.69;3056965;19;901;-50
2022/09/01 04:50:55;;;;;;;;;;;;;;;12.31;100.00;100876.94;3056980;19;1003;-47
2022/09/01 04:51:59;;;;;;;;;;;;;;;12.21;100.00;100870.41;3057426;19;888;-49
2022/09/01 04:53:05;;;;;;;;;;;;;;;12.14;100.00;100882.44;3056588;19;987;-49
2022/09/01 04:54:17;;;;;;;;;;;;;;;12.06;100.00;100874.06;3057115;19;956;-49
2022/09/01 04:55:27;;;;;;;;;;;;;;;11.99;100.00;100872.69;3056686;19;988;-46
2022/09/01 04:56:29;;;;;;;;;;;;;;;11.91;100.00;100875.84;3057411;19;916;-49
2022/09/01 04:57:46;;;;;;;;;;;;;;;11.83;100.00;100867.44;3057271;19;1385;-48
2022/09/01 04:58:48;;;;;;;;;;;;;;;11.79;100.00;100863.22;3058197;19;1481;-47
2022/09/01 04:59:54;;;;;;;;;;;;;;;11.75;100.00;100862.53;3058226;19;1425;-47
2022/09/01 05:00:59;;;;;;;;;;;;;;;11.71;100.00;100855.59;3058171;19;1338;-49
2022/09/01 05:02:08;;;;;;;;;;;;;;;11.67;100.00;100856.75;3058632;19;1212;-50
2022/09/01 05:03:10;;;;;;;;;;;;;;;11.64;100.00;100843.56;3057494;19;1368;-47
2022/09/01 05:04:32;;;;;;;;;;;;;;;11.63;100.00;100844.53;3059129;19;1805;-47
2022/09/01 05:05:38;;;;;;;;;;;;;;;11.62;100.00;100837.44;3056969;19;916;-47
2022/09/01 05:06:43;;;;;;;;;;;;;;;11.62;100.00;100842.78;3056661;19;1897;-47
2022/09/01 05:07:49;;;;;;;;;;;;;;;11.62;100.00;100832.09;3056011;19;1893;-48
2022/09/01 05:08:55;;;;;;;;;;;;;;;11.62;100.00;100832.09;3057460;19;1616;-49
2022/09/01 05:10:11;;;;;;;;;;;;;;;11.64;100.00;100824.84;3056821;19;943;-46
2022/09/01 05:11:23;;;;;;;;;;;;;;;11.66;100.00;100817.59;3056842;19;987;-47
2022/09/01 05:12:32;;;;;;;;;;;;;;;11.68;100.00;100821.06;3056651;19;936;-49
2022/09/01 05:13:37;;;;;;;;;;;;;;;11.70;100.00;100808.47;3054479;19;2267;-48
2022/09/01 05:14:41;;;;;;;;;;;;;;;11.72;100.00;100811.88;3058573;19;1359;-47
2022/09/01 05:15:47;;;;;;;;;;;;;;;11.73;100.00;100810.06;3057632;19;1299;-48
2022/09/01 05:16:49;;;;;;;;;;;;;;;11.76;100.00;100808.09;3057176;19;1712;-46
2022/09/01 05:17:57;;;;;;;;;;;;;;;11.79;100.00;100807.91;3057161;19;1860;-48
2022/09/01 05:19:00;;;;;;;;;;;;;;;11.82;100.00;100818.44;3057955;19;1423;-47
2022/09/01 05:20:10;;;;;;;;;;;;;;;11.83;100.00;100809.44;3057474;19;1799;-48
2022/09/01 05:21:15;;;;;;;;;;;;;;;11.87;100.00;100808.31;3057482;19;1621;-48
2022/09/01 05:22:21;;;;;;;;;;;;;;;11.92;100.00;100812.50;3055796;19;1787;-47
2022/09/01 05:23:31;;;;;;;;;;;;;;;11.95;100.00;100806.97;3057297;19;1759;-47
2022/09/01 05:24:37;;;;;;;;;;;;;;;11.96;100.00;100804.19;3057358;19;1378;-46
2022/09/01 05:25:44;;;;;;;;;;;;;;;12.01;100.00;100810.13;3057221;19;1801;-47
2022/09/01 05:26:49;;;;;;;;;;;;;;;12.04;100.00;100803.72;3057162;19;1472;-47
2022/09/01 05:27:51;;;;;;;;;;;;;;;12.07;100.00;100811.56;3056162;19;1344;-46
2022/09/01 05:29:00;;;;;;;;;;;;;;;12.11;100.00;100807.72;3055599;19;1913;-48
2022/09/01 05:30:07;;;;;;;;;;;;;;;12.13;100.00;100816.50;3056675;19;1056;-47
2022/09/01 05:31:11;;;;;;;;;;;;;;;12.16;100.00;100816.34;3056463;19;964;-49
2022/09/01 05:32:13;;;;;;;;;;;;;;;12.19;100.00;100816.16;3056515;19;951;-49
2022/09/01 05:33:18;;;;;;;;;;;;;;;12.21;100.00;100809.72;3056534;19;968;-47
2022/09/01 05:34:28;;;;;;;;;;;;;;;12.27;100.00;100816.50;3057226;19;1513;-49
2022/09/01 05:35:30;;;;;;;;;;;;;;;12.29;100.00;100811.06;3056154;19;991;-49
2022/09/01 05:36:36;;;;;;;;;;;;;;;12.26;100.00;100812.97;3017707;19;12869;-46
2022/09/01 05:37:41;;;;;;;;;;;;;;;12.30;100.00;100816.31;3056281;19;936;-46
2022/09/01 05:38:46;;;;;;;;;;;;;;;12.34;100.00;100822.31;3055550;19;1118;-48
2022/09/01 05:39:49;;;;;;;;;;;;;;;12.36;100.00;100821.28;3055808;19;980;-49
2022/09/01 05:40:58;;;;;;;;;;;;;;;12.38;100.00;100808.66;3056158;19;1172;-47
2022/09/01 05:42:00;;;;;;;;;;;;;;;12.42;100.00;100820.03;3053431;19;1943;-51
2022/09/01 05:43:05;;;;;;;;;;;;;;;12.46;100.00;100814.38;3055385;19;1478;-48
2022/09/01 05:44:10;;;;;;;;;;;;;;;12.49;100.00;100816.84;3056063;19;940;-50
2022/09/01 05:45:13;;;;;;;;;;;;;;;12.52;100.00;100808.63;3055275;19;913;-46